createdAt,value
2017-08-10T00:02:11.432Z,9.90
2017-08-10T00:04:38.935Z,12.40
2017-08-10T00:07:06.464Z,11.07
2017-08-10T00:09:33.964Z,9.33
2017-08-10T00:12:01.469Z,17.53
2017-08-10T00:14:29.007Z,7.40
2017-08-10T00:16:57.295Z,8.90
2017-08-10T00:19:24.878Z,4.80
2017-08-10T00:21:52.394Z,5.97
2017-08-10T00:24:20.659Z,10.30
2017-08-10T00:26:48.183Z,7.43
2017-08-10T00:29:15.730Z,9.47
2017-08-10T00:31:43.242Z,6.47
2017-08-10T00:34:11.148Z,6.07
2017-08-10T00:36:38.648Z,9.80
2017-08-10T00:39:06.173Z,7.07
2017-08-10T00:41:33.759Z,6.90
2017-08-10T00:44:01.315Z,8.30
2017-08-10T00:46:28.828Z,10.53
2017-08-10T00:48:56.393Z,12.10
2017-08-10T00:51:23.902Z,9.37
2017-08-10T00:53:51.418Z,7.17
2017-08-10T00:56:18.970Z,15.43
2017-08-10T00:58:46.477Z,8.33
2017-08-10T01:01:14.000Z,9.47
2017-08-10T01:03:41.529Z,10.57
2017-08-10T01:06:09.815Z,9.70
2017-08-10T01:08:37.396Z,7.63
2017-08-10T01:11:04.901Z,15.50
2017-08-10T01:13:32.518Z,13.73
2017-08-10T01:16:00.044Z,13.30
2017-08-10T01:18:27.545Z,7.63
2017-08-10T01:20:55.044Z,8.30
2017-08-10T01:23:23.354Z,10.63
2017-08-10T01:25:50.871Z,9.90
2017-08-10T01:28:18.396Z,7.50
2017-08-10T01:30:45.896Z,8.30
2017-08-10T01:33:14.160Z,9.10
2017-08-10T01:35:41.705Z,10.60
2017-08-10T01:38:09.210Z,9.13
2017-08-10T01:40:36.734Z,10.10
2017-08-10T01:43:04.276Z,8.50
2017-08-10T01:45:31.773Z,8.27
2017-08-10T01:48:00.055Z,15.37
2017-08-10T01:50:28.461Z,13.43
2017-08-10T01:52:56.102Z,8.23
2017-08-10T01:55:23.607Z,7.60
2017-08-10T01:57:51.132Z,9.53
2017-08-10T02:00:18.651Z,10.87
2017-08-10T02:02:46.954Z,11.13
2017-08-10T02:05:14.489Z,16.67
2017-08-10T02:07:42.016Z,10.70
2017-08-10T02:10:09.516Z,8.87
2017-08-10T02:12:37.050Z,9.87
2017-08-10T02:15:05.349Z,11.83
2017-08-10T02:17:32.908Z,10.63
2017-08-10T02:20:00.412Z,15.33
2017-08-10T02:22:27.947Z,7.57
2017-08-10T02:24:55.489Z,7.90
2017-08-10T02:27:23.001Z,12.03
2017-08-10T02:29:50.529Z,10.57
2017-08-10T02:32:18.180Z,12.50
2017-08-10T02:34:45.698Z,12.77
2017-08-10T02:37:13.986Z,10.73
2017-08-10T02:39:41.523Z,10.47
2017-08-10T02:42:09.788Z,8.30
2017-08-10T02:44:37.295Z,9.90
2017-08-10T02:47:04.850Z,12.13
2017-08-10T02:49:32.366Z,9.37
2017-08-10T02:51:59.879Z,13.63
2017-08-10T02:54:27.422Z,9.30
2017-08-10T02:56:54.967Z,12.33
2017-08-10T02:59:23.228Z,8.43
2017-08-10T03:01:50.762Z,9.13
2017-08-10T03:04:18.260Z,11.43
2017-08-10T03:06:46.553Z,9.30
2017-08-10T03:09:14.060Z,13.50
2017-08-10T03:11:41.568Z,10.00
2017-08-10T03:14:09.111Z,9.80
2017-08-10T03:16:37.376Z,11.97
2017-08-10T03:19:05.649Z,13.43
2017-08-10T03:21:33.940Z,13.50
2017-08-10T03:24:02.220Z,10.37
2017-08-10T03:26:29.778Z,12.10
2017-08-10T03:28:57.278Z,12.73
2017-08-10T03:31:24.819Z,16.83
2017-08-10T03:33:52.366Z,14.00
2017-08-10T03:36:19.892Z,13.90
2017-08-10T03:38:47.392Z,32.77
2017-08-10T03:41:14.939Z,12.97
2017-08-10T03:43:42.445Z,15.40
2017-08-10T03:46:10.075Z,13.50
2017-08-10T03:48:37.608Z,19.23
2017-08-10T03:51:05.190Z,12.87
2017-08-10T03:53:32.705Z,11.93
2017-08-10T03:56:01.017Z,11.87
2017-08-10T03:58:28.523Z,11.77
2017-08-10T04:00:56.024Z,9.83
2017-08-10T04:03:23.567Z,18.20
2017-08-10T04:05:51.854Z,13.50
2017-08-10T04:08:19.384Z,9.77
2017-08-10T04:10:46.883Z,10.23
2017-08-10T04:13:14.403Z,12.10
2017-08-10T04:15:42.704Z,11.90
2017-08-10T04:18:10.208Z,9.53
2017-08-10T04:20:37.726Z,13.20
2017-08-10T04:23:05.302Z,14.30
2017-08-10T04:25:32.800Z,8.60
2017-08-10T04:28:00.317Z,8.27
2017-08-10T04:30:27.857Z,15.70
2017-08-10T04:32:55.393Z,7.13
2017-08-10T04:35:23.664Z,7.13
2017-08-10T04:37:51.195Z,13.53
2017-08-10T04:40:18.696Z,11.03
2017-08-10T04:42:46.208Z,10.57
2017-08-10T04:45:13.748Z,13.03
2017-08-10T04:47:41.266Z,14.53
2017-08-10T04:50:09.540Z,11.50
2017-08-10T04:52:37.854Z,10.60
2017-08-10T04:55:05.352Z,16.20
2017-08-10T04:57:32.862Z,12.73
2017-08-10T05:00:00.432Z,18.90
2017-08-10T05:02:27.992Z,13.60
2017-08-10T05:04:55.548Z,17.17
2017-08-10T05:07:23.056Z,13.50
2017-08-10T05:09:50.670Z,10.00
2017-08-10T05:12:18.274Z,11.07
2017-08-10T05:14:45.794Z,13.03
2017-08-10T05:17:13.351Z,13.57
2017-08-10T05:19:40.874Z,22.00
2017-08-10T05:22:08.380Z,10.60
2017-08-10T05:24:35.913Z,11.00
2017-08-10T05:27:03.420Z,16.53
2017-08-10T05:29:30.928Z,15.63
2017-08-10T05:31:58.466Z,17.03
2017-08-10T05:34:26.755Z,14.80
2017-08-10T05:36:54.292Z,11.50
2017-08-10T05:39:22.587Z,15.43
2017-08-10T05:41:50.087Z,15.13
2017-08-10T05:44:17.612Z,10.63
2017-08-10T05:46:45.139Z,11.77
2017-08-10T05:49:13.408Z,14.20
2017-08-10T05:51:40.953Z,11.17
2017-08-10T05:54:08.472Z,12.00
2017-08-10T05:56:35.994Z,13.43
2017-08-10T05:59:04.302Z,19.37
2017-08-10T06:01:31.824Z,14.30
2017-08-10T06:04:00.139Z,18.27
2017-08-10T06:06:27.667Z,17.67
2017-08-10T06:08:55.950Z,12.53
2017-08-10T06:11:24.248Z,15.53
2017-08-10T06:13:51.817Z,10.17
2017-08-10T06:16:19.321Z,11.03
2017-08-10T06:18:46.840Z,13.63
2017-08-10T06:21:14.358Z,14.77
2017-08-10T06:23:42.674Z,19.27
2017-08-10T06:26:10.184Z,13.20
2017-08-10T06:28:38.461Z,17.00
2017-08-10T06:31:06.766Z,19.17
2017-08-10T06:33:34.282Z,7.70
2017-08-10T06:36:01.800Z,9.20
2017-08-10T06:38:29.331Z,13.10
2017-08-10T06:40:56.850Z,11.57
2017-08-10T06:43:25.875Z,7.83
2017-08-10T06:45:54.190Z,12.63
2017-08-10T06:48:21.710Z,15.03
2017-08-10T06:50:50.122Z,25.97
2017-08-10T06:53:17.654Z,10.10
2017-08-10T06:55:45.152Z,6.87
2017-08-10T06:58:12.676Z,7.40
2017-08-10T07:00:40.184Z,16.27
2017-08-10T07:03:07.702Z,11.40
2017-08-10T07:05:35.233Z,5.40
2017-08-10T07:08:03.510Z,6.90
2017-08-10T07:10:31.786Z,13.30
2017-08-10T07:13:00.082Z,8.33
2017-08-10T07:15:27.594Z,6.83
2017-08-10T07:17:55.139Z,6.07
2017-08-10T07:20:22.635Z,6.10
2017-08-10T07:22:50.908Z,9.67
2017-08-10T07:25:19.206Z,7.13
2017-08-10T07:27:46.722Z,5.90
2017-08-10T07:30:14.261Z,5.93
2017-08-10T07:32:41.778Z,5.77
2017-08-10T07:35:09.359Z,6.67
2017-08-10T07:37:36.880Z,7.63
2017-08-10T07:40:05.158Z,6.67
2017-08-10T07:42:33.453Z,9.50
2017-08-10T07:45:00.982Z,13.83
2017-08-10T07:47:28.485Z,11.23
2017-08-10T07:49:56.965Z,9.03
2017-08-10T07:52:24.465Z,9.27
2017-08-10T07:54:51.964Z,7.70
2017-08-10T07:57:19.518Z,6.63
2017-08-10T07:59:47.037Z,14.30
2017-08-10T08:02:14.556Z,7.63
2017-08-10T08:04:42.142Z,15.50
2017-08-10T08:07:09.654Z,6.50
2017-08-10T08:09:37.156Z,12.43
2017-08-10T08:12:04.694Z,7.40
2017-08-10T08:14:32.215Z,14.50
2017-08-10T08:17:00.497Z,14.93
2017-08-10T08:19:28.791Z,10.17
2017-08-10T08:21:56.289Z,7.40
2017-08-10T08:24:23.801Z,7.90
2017-08-10T08:26:51.342Z,9.50
2017-08-10T08:29:19.608Z,12.37
2017-08-10T08:31:47.904Z,10.47
2017-08-10T08:34:15.432Z,8.13
2017-08-10T08:36:42.951Z,17.53
2017-08-10T08:39:10.475Z,6.17
2017-08-10T08:41:38.786Z,7.73
2017-08-10T08:44:06.284Z,6.20
2017-08-10T08:46:33.799Z,6.87
2017-08-10T08:49:01.351Z,7.60
2017-08-10T08:51:28.867Z,5.53
2017-08-10T08:53:56.370Z,6.70
2017-08-10T08:56:24.035Z,5.37
2017-08-10T08:58:51.537Z,4.83
2017-08-10T09:01:19.054Z,4.63
2017-08-10T09:03:46.588Z,5.17
2017-08-10T09:06:14.172Z,16.33
2017-08-10T09:08:41.728Z,4.23
2017-08-10T09:11:09.287Z,6.03
2017-08-10T09:13:36.799Z,6.27
2017-08-10T09:16:05.066Z,3.67
2017-08-10T09:18:32.680Z,4.50
2017-08-10T09:21:00.196Z,3.27
2017-08-10T09:23:28.506Z,3.10
2017-08-10T09:25:56.009Z,4.10
2017-08-10T09:28:23.525Z,4.93
2017-08-10T09:30:51.071Z,7.40
2017-08-10T09:33:18.591Z,6.80
2017-08-10T09:35:46.092Z,5.00
2017-08-10T09:38:13.641Z,10.73
2017-08-10T09:40:41.159Z,4.30
2017-08-10T09:43:08.661Z,1.60
2017-08-10T09:45:36.207Z,6.90
2017-08-10T09:48:04.495Z,2.80
2017-08-10T09:50:32.010Z,3.77
2017-08-10T09:52:59.532Z,2.13
2017-08-10T09:55:27.033Z,1.90
2017-08-10T09:57:54.554Z,1.60
2017-08-10T10:00:22.090Z,1.60
2017-08-10T10:02:49.592Z,2.40
2017-08-10T10:05:17.121Z,2.33
2017-08-10T10:07:44.638Z,2.20
2017-08-10T10:10:12.904Z,1.83
2017-08-10T10:12:40.451Z,1.60
2017-08-10T10:15:07.948Z,1.40
2017-08-10T10:17:35.535Z,4.43
2017-08-10T10:20:03.085Z,2.90
2017-08-10T10:22:30.651Z,1.97
2017-08-10T10:24:58.167Z,3.83
2017-08-10T10:27:26.487Z,2.23
2017-08-10T10:29:53.989Z,1.73
2017-08-10T10:32:21.491Z,3.27
2017-08-10T10:34:49.015Z,2.60
2017-08-10T10:37:16.512Z,3.33
2017-08-10T10:39:44.011Z,3.40
2017-08-10T10:42:11.548Z,5.27
2017-08-10T10:44:39.053Z,4.90
2017-08-10T10:47:07.343Z,2.53
2017-08-10T10:49:34.864Z,2.40
2017-08-10T10:52:02.374Z,3.20
2017-08-10T10:54:29.909Z,4.23
2017-08-10T10:56:58.187Z,3.07
2017-08-10T10:59:26.496Z,2.27
2017-08-10T11:01:54.023Z,2.07
2017-08-10T11:04:22.307Z,1.83
2017-08-10T11:06:49.808Z,2.37
2017-08-10T11:09:17.349Z,2.40
2017-08-10T11:11:44.863Z,2.63
2017-08-10T11:14:13.142Z,2.33
2017-08-10T11:16:41.439Z,5.77
2017-08-10T11:19:08.948Z,2.70
2017-08-10T11:21:36.578Z,2.73
2017-08-10T11:24:04.111Z,2.83
2017-08-10T11:26:31.622Z,1.73
2017-08-10T11:28:59.139Z,1.50
2017-08-10T11:31:26.663Z,3.27
2017-08-10T11:33:54.186Z,1.70
2017-08-10T11:36:21.698Z,5.60
2017-08-10T11:38:50.108Z,3.27
2017-08-10T11:41:17.603Z,1.63
2017-08-10T11:43:45.125Z,1.40
2017-08-10T11:46:12.699Z,1.23
2017-08-10T11:48:40.212Z,2.37
2017-08-10T11:51:08.476Z,2.63
2017-08-10T11:53:36.791Z,2.00
2017-08-10T11:56:04.291Z,4.70
2017-08-10T11:58:31.795Z,3.70
2017-08-10T12:00:59.347Z,3.80
2017-08-10T12:03:26.844Z,4.77
2017-08-10T12:05:54.352Z,5.83
2017-08-10T12:08:22.658Z,5.17
2017-08-10T12:10:50.175Z,5.83
2017-08-10T12:13:18.496Z,11.97
2017-08-10T12:15:46.023Z,8.47
2017-08-10T12:18:14.309Z,7.47
2017-08-10T12:20:41.826Z,8.70
2017-08-10T12:23:09.370Z,6.07
2017-08-10T12:25:36.872Z,6.00
2017-08-10T12:28:05.154Z,5.20
2017-08-10T12:30:32.680Z,5.43
2017-08-10T12:33:00.176Z,5.10
2017-08-10T12:35:27.676Z,14.67
2017-08-10T12:37:55.218Z,6.10
2017-08-10T12:40:22.735Z,7.93
2017-08-10T12:42:51.014Z,4.93
2017-08-10T12:45:19.338Z,10.30
2017-08-10T12:47:46.859Z,6.03
2017-08-10T12:50:14.369Z,5.77
2017-08-10T12:52:41.906Z,6.90
2017-08-10T12:55:09.429Z,4.50
2017-08-10T12:57:37.695Z,4.43
2017-08-10T13:00:05.984Z,4.23
2017-08-10T13:02:33.484Z,3.77
2017-08-10T13:05:00.999Z,4.03
2017-08-10T13:07:28.551Z,2.80
2017-08-10T13:09:56.825Z,3.50
2017-08-10T13:12:25.110Z,10.03
2017-08-10T13:14:52.709Z,6.10
2017-08-10T13:17:20.226Z,6.90
2017-08-10T13:19:47.743Z,4.97
2017-08-10T13:22:15.286Z,4.47
2017-08-10T13:24:42.811Z,5.20
2017-08-10T13:27:11.131Z,4.13
2017-08-10T13:29:38.661Z,5.23
2017-08-10T13:32:06.967Z,4.23
2017-08-10T13:34:34.487Z,4.67
2017-08-10T13:37:02.779Z,7.90
2017-08-10T13:39:30.286Z,4.17
2017-08-10T13:41:57.789Z,7.47
2017-08-10T13:44:26.084Z,5.20
2017-08-10T13:46:53.598Z,4.70
2017-08-10T13:49:21.214Z,4.97
2017-08-10T13:51:48.769Z,6.00
2017-08-10T13:54:16.306Z,8.63
2017-08-10T13:56:43.859Z,10.23
2017-08-10T13:59:12.167Z,5.67
2017-08-10T14:01:39.687Z,6.53
2017-08-10T14:04:07.994Z,8.70
2017-08-10T14:06:35.514Z,6.27
2017-08-10T14:09:03.781Z,7.83
2017-08-10T14:11:31.312Z,6.53
2017-08-10T14:13:58.822Z,6.27
2017-08-10T14:16:27.086Z,7.53
2017-08-10T14:18:55.410Z,10.30
2017-08-10T14:21:22.913Z,5.77
2017-08-10T14:23:50.449Z,6.20
2017-08-10T14:26:17.986Z,6.10
2017-08-10T14:28:45.484Z,8.50
2017-08-10T14:31:13.002Z,10.23
2017-08-10T14:33:40.528Z,6.20
2017-08-10T14:36:08.043Z,5.27
2017-08-10T14:38:35.548Z,7.03
2017-08-10T14:41:03.098Z,10.97
2017-08-10T14:43:31.365Z,4.47
2017-08-10T14:45:59.628Z,5.07
2017-08-10T14:48:27.206Z,7.07
2017-08-10T14:50:55.471Z,8.53
2017-08-10T14:53:23.770Z,7.30
2017-08-10T14:55:51.300Z,3.73
2017-08-10T14:58:18.818Z,6.40
2017-08-10T15:00:46.335Z,7.50
2017-08-10T15:03:14.619Z,8.70
2017-08-10T15:05:42.147Z,6.70
2017-08-10T15:08:09.652Z,5.80
2017-08-10T15:10:37.184Z,6.63
2017-08-10T15:13:05.478Z,10.73
2017-08-10T15:15:32.998Z,12.53
2017-08-10T15:18:00.616Z,6.43
2017-08-10T15:20:28.120Z,5.03
2017-08-10T15:22:55.643Z,9.37
2017-08-10T15:25:23.159Z,9.67
2017-08-10T15:27:51.463Z,6.23
2017-08-10T15:30:19.024Z,6.50
2017-08-10T15:32:46.535Z,9.73
2017-08-10T15:35:14.823Z,5.10
2017-08-10T15:37:43.120Z,5.57
2017-08-10T15:40:10.638Z,5.20
2017-08-10T15:42:38.155Z,5.17
2017-08-10T15:45:05.701Z,6.30
2017-08-10T15:47:33.788Z,7.20
2017-08-10T15:50:01.341Z,6.77
2017-08-10T15:52:29.558Z,12.03
2017-08-10T15:54:57.081Z,6.53
2017-08-10T15:57:24.736Z,6.77
2017-08-10T15:59:52.236Z,6.80
2017-08-10T16:02:19.855Z,8.57
2017-08-10T16:04:47.413Z,6.57
2017-08-10T16:07:14.973Z,10.17
2017-08-10T16:09:42.496Z,9.40
2017-08-10T16:12:10.787Z,6.43
2017-08-10T16:14:38.303Z,9.30
2017-08-10T16:17:05.813Z,11.37
2017-08-10T16:19:33.344Z,8.23
2017-08-10T16:22:01.622Z,6.93
2017-08-10T16:24:29.934Z,12.13
2017-08-10T16:26:57.477Z,8.20
2017-08-10T16:29:24.990Z,8.67
2017-08-10T16:31:52.509Z,7.60
2017-08-10T16:34:20.046Z,11.50
2017-08-10T16:36:47.544Z,7.80
2017-08-10T16:39:15.063Z,9.43
2017-08-10T16:41:42.568Z,15.40
2017-08-10T16:44:10.071Z,16.80
2017-08-10T16:46:38.390Z,11.33
2017-08-10T16:49:05.910Z,11.57
2017-08-10T16:51:33.422Z,14.30
2017-08-10T16:54:00.960Z,16.70
2017-08-10T16:56:28.478Z,21.07
2017-08-10T16:58:56.783Z,17.53
2017-08-10T17:01:24.346Z,14.80
2017-08-10T17:03:51.871Z,16.90
2017-08-10T17:06:20.144Z,20.60
2017-08-10T17:08:48.444Z,18.83
2017-08-10T17:11:15.961Z,21.63
2017-08-10T17:13:43.487Z,18.60
2017-08-10T17:16:11.034Z,21.57
2017-08-10T17:18:38.540Z,21.63
2017-08-10T17:21:06.048Z,24.03
2017-08-10T17:23:33.585Z,27.20
2017-08-10T17:26:01.113Z,31.97
2017-08-10T17:28:28.621Z,26.17
2017-08-10T17:30:56.160Z,22.67
2017-08-10T17:33:23.664Z,22.33
2017-08-10T17:35:51.182Z,19.53
2017-08-10T17:38:18.717Z,26.60
2017-08-10T17:40:47.006Z,23.70
2017-08-10T17:46:05.292Z,23.10
2017-08-10T17:48:32.824Z,23.40
2017-08-10T17:51:01.118Z,20.23
2017-08-10T17:53:28.623Z,19.37
2017-08-10T17:55:56.157Z,21.27
2017-08-10T17:58:23.673Z,28.53
2017-08-10T18:00:51.198Z,27.07
2017-08-10T18:03:18.724Z,18.47
2017-08-10T18:05:46.242Z,21.00
2017-08-10T18:08:14.507Z,27.00
2017-08-10T18:10:42.027Z,21.87
2017-08-10T18:13:09.546Z,24.80
2017-08-10T18:15:37.065Z,25.60
2017-08-10T18:18:04.592Z,26.83
2017-08-10T18:20:32.113Z,24.13
2017-08-10T18:23:00.419Z,27.37
2017-08-10T18:25:27.944Z,30.53
2017-08-10T18:27:56.221Z,26.37
2017-08-10T18:30:24.520Z,29.10
2017-08-10T18:32:52.042Z,33.30
2017-08-10T18:35:19.655Z,32.87
2017-08-10T18:37:47.198Z,33.57
2017-08-10T18:40:14.718Z,26.07
2017-08-10T18:42:42.221Z,28.23
2017-08-10T18:45:09.751Z,31.77
2017-08-10T18:47:38.064Z,30.23
2017-08-10T18:50:05.598Z,31.50
2017-08-10T18:52:33.123Z,28.40
2017-08-10T18:55:00.619Z,31.77
2017-08-10T18:57:28.120Z,29.67
2017-08-10T18:59:55.648Z,33.33
2017-08-10T19:02:23.211Z,37.63
2017-08-10T19:04:50.738Z,35.27
2017-08-10T19:07:19.032Z,38.67
2017-08-10T19:09:46.570Z,42.03
2017-08-10T19:12:14.882Z,42.60
2017-08-10T19:14:42.430Z,49.67
2017-08-10T19:17:10.014Z,55.17
2017-08-10T19:19:37.534Z,63.27
2017-08-10T19:22:05.067Z,74.20
2017-08-10T19:24:32.573Z,74.30
2017-08-10T19:27:00.094Z,70.17
2017-08-10T19:29:28.409Z,67.00
2017-08-10T19:31:55.912Z,71.60
2017-08-10T19:34:23.412Z,94.50
2017-08-10T19:36:50.953Z,95.70
2017-08-10T19:39:19.219Z,100.07
2017-08-10T19:41:47.487Z,109.80
2017-08-10T19:44:15.024Z,117.50
2017-08-10T19:46:42.545Z,118.57
2017-08-10T19:49:10.117Z,114.93
2017-08-10T19:51:37.666Z,103.13
2017-08-10T19:54:05.180Z,100.27
2017-08-10T19:56:32.689Z,108.50
2017-08-10T19:59:00.246Z,102.83
2017-08-10T20:01:27.748Z,98.03
2017-08-10T20:03:55.262Z,114.93
2017-08-10T20:06:22.787Z,99.33
2017-08-10T20:08:51.052Z,87.23
2017-08-10T20:11:19.343Z,81.37
2017-08-10T20:13:47.650Z,78.97
2017-08-10T20:16:15.211Z,64.37
2017-08-10T20:18:42.726Z,65.97
2017-08-10T20:21:11.020Z,78.73
2017-08-10T20:23:38.533Z,69.20
2017-08-10T20:26:06.031Z,72.30
2017-08-10T20:28:34.345Z,73.27
2017-08-10T20:31:01.896Z,66.33
2017-08-10T20:33:29.427Z,69.87
2017-08-10T20:35:56.974Z,66.67
2017-08-10T20:38:25.255Z,68.03
2017-08-10T20:40:53.524Z,79.63
2017-08-10T20:43:21.834Z,75.60
2017-08-10T20:45:49.353Z,88.77
2017-08-10T20:48:16.853Z,93.93
2017-08-10T20:50:44.418Z,89.43
2017-08-10T20:53:11.929Z,99.20
2017-08-10T20:55:39.534Z,109.57
2017-08-10T20:58:07.059Z,107.93
2017-08-10T21:00:35.341Z,109.63
2017-08-10T21:03:03.631Z,105.07
2017-08-10T21:05:31.153Z,90.30
2017-08-10T21:07:58.660Z,74.37
2017-08-10T21:10:26.199Z,74.47
2017-08-10T21:12:54.485Z,75.93
2017-08-10T21:15:22.001Z,88.30
2017-08-10T21:17:49.538Z,94.60
2017-08-10T21:20:17.039Z,92.97
2017-08-10T21:22:45.451Z,99.03
2017-08-10T21:25:12.952Z,85.73
2017-08-10T21:27:40.468Z,79.70
2017-08-10T21:30:08.015Z,91.47
2017-08-10T21:32:35.519Z,102.17
2017-08-10T21:35:03.028Z,103.87
2017-08-10T21:37:30.580Z,104.63
2017-08-10T21:39:58.095Z,110.90
2017-08-10T21:42:25.600Z,104.97
2017-08-10T21:44:53.145Z,107.90
2017-08-10T21:47:20.652Z,91.50
2017-08-10T21:49:48.190Z,107.57
2017-08-10T21:52:15.733Z,93.43
2017-08-10T21:54:43.239Z,113.60
2017-08-10T21:57:10.748Z,122.20
2017-08-10T21:59:38.317Z,123.47
2017-08-10T22:02:05.850Z,126.80
2017-08-10T22:04:34.124Z,117.70
2017-08-10T22:07:02.420Z,98.67
2017-08-10T22:09:29.998Z,119.37
2017-08-10T22:11:57.555Z,112.47
2017-08-10T22:14:25.141Z,111.77
2017-08-10T22:16:52.659Z,126.70
2017-08-10T22:19:20.141Z,114.70
2017-08-10T22:21:47.661Z,115.03
2017-08-10T22:24:15.946Z,111.20
2017-08-10T22:26:43.451Z,110.97
2017-08-10T22:29:10.999Z,113.77
2017-08-10T22:31:38.499Z,103.87
2017-08-10T22:34:06.026Z,103.27
2017-08-10T22:36:34.320Z,106.10
2017-08-10T22:39:01.901Z,102.70
2017-08-10T22:41:29.422Z,113.40
2017-08-10T22:43:57.713Z,108.03
2017-08-10T22:46:25.201Z,108.90
2017-08-10T22:48:52.751Z,101.83
2017-08-10T22:51:20.278Z,129.10
2017-08-10T22:53:48.565Z,120.53
2017-08-10T22:56:16.067Z,108.33
2017-08-10T22:58:43.595Z,107.30
2017-08-10T23:01:11.114Z,93.17
2017-08-10T23:03:38.620Z,92.87
2017-08-10T23:06:06.166Z,90.93
2017-08-10T23:08:33.668Z,95.83
2017-08-10T23:11:01.177Z,91.97
2017-08-10T23:13:28.722Z,88.57
2017-08-10T23:15:57.030Z,102.43
2017-08-10T23:18:24.531Z,102.37
2017-08-10T23:20:52.151Z,105.07
2017-08-10T23:23:19.674Z,93.83
2017-08-10T23:25:47.959Z,94.10
2017-08-10T23:28:16.263Z,98.80
2017-08-10T23:30:43.786Z,95.20
2017-08-10T23:33:12.073Z,102.90
2017-08-10T23:35:39.654Z,91.37
2017-08-10T23:38:07.151Z,98.03
2017-08-10T23:40:34.672Z,99.03
2017-08-10T23:43:02.208Z,114.13
2017-08-10T23:45:29.721Z,108.67
2017-08-10T23:47:57.224Z,110.43
2017-08-10T23:50:24.769Z,110.57
2017-08-10T23:52:53.047Z,105.20
2017-08-10T23:55:21.342Z,99.13
2017-08-10T23:57:48.912Z,86.23
